createdAt,value
2022-08-30T00:01:03.749Z,0.68
2022-08-30T00:03:37.004Z,0.57
2022-08-30T00:06:06.681Z,0.75
2022-08-30T00:08:34.747Z,0.40
2022-08-30T00:11:02.710Z,0.40
2022-08-30T00:13:29.903Z,0.28
2022-08-30T00:15:56.604Z,0.60
2022-08-30T00:18:24.508Z,0.30
2022-08-30T00:20:52.350Z,0.45
2022-08-30T00:23:19.676Z,0.65
2022-08-30T00:25:46.395Z,0.30
2022-08-30T00:28:14.126Z,0.20
2022-08-30T00:30:41.867Z,0.47
2022-08-30T00:33:08.776Z,0.40
2022-08-30T00:35:35.447Z,0.20
2022-08-30T00:38:02.159Z,0.60
2022-08-30T00:40:30.914Z,0.43
2022-08-30T00:43:00.031Z,0.30
2022-08-30T00:45:36.291Z,0.20
2022-08-30T00:48:05.019Z,0.22
2022-08-30T00:50:36.027Z,0.45
2022-08-30T00:53:07.025Z,0.30
2022-08-30T00:55:33.912Z,1.20
2022-08-30T00:58:05.869Z,0.35
2022-08-30T01:00:32.980Z,0.30
2022-08-30T01:02:59.616Z,0.43
2022-08-30T01:05:26.419Z,0.40
2022-08-30T01:07:53.056Z,1.20
2022-08-30T01:10:19.744Z,0.20
2022-08-30T01:12:47.377Z,0.60
2022-08-30T01:15:15.778Z,0.40
2022-08-30T01:17:44.416Z,0.30
2022-08-30T01:20:15.684Z,0.50
2022-08-30T01:22:51.516Z,0.40
2022-08-30T01:25:22.705Z,0.50
2022-08-30T01:28:06.110Z,0.45
2022-08-30T01:30:33.147Z,0.50
2022-08-30T01:33:03.996Z,0.20
2022-08-30T01:35:39.047Z,0.40
2022-08-30T01:38:05.719Z,0.30
2022-08-30T01:40:32.338Z,0.40
2022-08-30T01:42:58.978Z,0.57
2022-08-30T01:45:25.631Z,0.47
2022-08-30T01:47:52.246Z,0.30
2022-08-30T01:50:18.849Z,0.30
2022-08-30T01:52:45.435Z,0.32
2022-08-30T01:55:12.217Z,0.30
2022-08-30T01:57:38.918Z,0.50
2022-08-30T02:00:09.145Z,0.60
2022-08-30T02:02:36.142Z,0.40
2022-08-30T02:05:02.938Z,0.32
2022-08-30T02:07:29.812Z,0.35
2022-08-30T02:09:56.847Z,0.40
2022-08-30T02:12:23.868Z,0.60
2022-08-30T02:14:50.416Z,0.40
2022-08-30T02:17:19.453Z,0.40
2022-08-30T02:19:46.028Z,0.55
2022-08-30T02:22:12.992Z,0.50
2022-08-30T02:24:39.785Z,0.40
2022-08-30T02:27:06.804Z,0.38
2022-08-30T02:29:33.566Z,0.40
2022-08-30T02:32:00.455Z,0.50
2022-08-30T02:34:27.137Z,0.40
2022-08-30T02:36:53.734Z,0.40
2022-08-30T02:39:20.414Z,0.50
2022-08-30T02:41:46.990Z,0.70
2022-08-30T02:44:15.640Z,0.52
2022-08-30T02:46:42.457Z,0.50
2022-08-30T02:49:30.418Z,0.52
2022-08-30T02:51:55.903Z,0.60
2022-08-30T02:54:22.465Z,0.50
2022-08-30T02:56:49.522Z,0.50
2022-08-30T02:59:18.102Z,0.43
2022-08-30T03:01:44.801Z,0.50
2022-08-30T03:04:11.468Z,0.52
2022-08-30T03:06:38.827Z,0.45
2022-08-30T03:09:05.480Z,0.55
2022-08-30T03:11:32.659Z,0.60
2022-08-30T03:13:59.610Z,0.57
2022-08-30T03:16:26.577Z,0.45
2022-08-30T03:18:53.167Z,0.73
2022-08-30T03:21:19.892Z,0.50
2022-08-30T03:23:46.536Z,0.60
2022-08-30T03:26:14.966Z,0.40
2022-08-30T03:28:42.682Z,0.60
2022-08-30T03:31:09.686Z,0.45
2022-08-30T03:33:37.206Z,0.50
2022-08-30T03:36:04.287Z,0.30
2022-08-30T03:38:31.215Z,0.50
2022-08-30T03:40:57.921Z,0.52
2022-08-30T03:43:25.395Z,0.47
2022-08-30T03:45:52.579Z,0.60
2022-08-30T03:48:19.201Z,0.40
2022-08-30T03:50:45.802Z,0.40
2022-08-30T03:53:12.665Z,0.40
2022-08-30T03:55:40.504Z,0.60
2022-08-30T03:58:07.075Z,0.40
2022-08-30T04:00:33.843Z,0.50
2022-08-30T04:03:00.404Z,0.50
2022-08-30T04:05:27.407Z,0.50
2022-08-30T04:07:54.167Z,0.60
2022-08-30T04:10:21.407Z,0.40
2022-08-30T04:12:49.939Z,0.68
2022-08-30T04:15:18.866Z,0.60
2022-08-30T04:17:45.875Z,0.40
2022-08-30T04:20:12.593Z,0.40
2022-08-30T04:22:39.467Z,0.30
2022-08-30T04:25:07.282Z,0.32
2022-08-30T04:27:33.953Z,0.47
2022-08-30T04:30:01.283Z,0.70
2022-08-30T04:32:28.022Z,0.57
2022-08-30T04:34:59.735Z,0.50
2022-08-30T04:37:27.417Z,0.55
2022-08-30T04:40:00.680Z,0.73
2022-08-30T04:42:31.321Z,0.50
2022-08-30T04:45:00.237Z,0.40
2022-08-30T04:47:27.024Z,0.60
2022-08-30T04:49:53.910Z,0.40
2022-08-30T04:52:20.479Z,0.47
2022-08-30T04:54:47.197Z,0.50
2022-08-30T04:57:13.983Z,0.77
2022-08-30T04:59:40.812Z,1.20
2022-08-30T05:02:07.521Z,0.60
2022-08-30T05:04:34.120Z,0.63
2022-08-30T05:07:00.689Z,0.68
2022-08-30T05:09:27.234Z,0.47
2022-08-30T05:11:53.943Z,0.57
2022-08-30T05:14:20.650Z,0.63
2022-08-30T05:16:47.283Z,0.55
2022-08-30T05:19:13.924Z,0.75
2022-08-30T05:21:41.231Z,0.40
2022-08-30T05:24:08.152Z,0.55
2022-08-30T05:26:37.723Z,0.50
2022-08-30T05:29:04.423Z,0.40
2022-08-30T05:31:34.412Z,0.60
2022-08-30T05:34:01.751Z,0.50
2022-08-30T05:36:31.309Z,0.30
2022-08-30T05:38:58.337Z,0.40
2022-08-30T05:41:26.684Z,0.50
2022-08-30T05:43:55.454Z,0.20
2022-08-30T05:46:22.754Z,0.32
2022-08-30T05:48:50.076Z,0.30
2022-08-30T05:51:23.055Z,0.35
2022-08-30T05:53:51.409Z,0.15
2022-08-30T05:56:21.678Z,0.17
2022-08-30T05:58:51.804Z,0.25
2022-08-30T06:01:20.090Z,0.10
2022-08-30T06:03:46.771Z,0.38
2022-08-30T06:06:13.328Z,0.35
2022-08-30T06:08:39.951Z,0.28
2022-08-30T06:11:06.549Z,0.30
2022-08-30T06:13:33.140Z,0.30
2022-08-30T06:15:59.726Z,0.20
2022-08-30T06:18:28.450Z,0.35
2022-08-30T06:20:55.488Z,0.20
2022-08-30T06:23:22.421Z,0.38
2022-08-30T06:25:49.405Z,0.32
2022-08-30T06:28:16.164Z,0.30
2022-08-30T06:30:43.780Z,0.57
2022-08-30T06:33:11.091Z,0.50
2022-08-30T06:35:46.770Z,0.50
2022-08-30T06:38:18.930Z,0.32
2022-08-30T06:40:45.594Z,0.30
2022-08-30T06:43:12.199Z,0.40
2022-08-30T06:45:38.750Z,0.30
2022-08-30T06:48:05.311Z,0.60
2022-08-30T06:50:32.046Z,0.47
2022-08-30T06:53:04.480Z,0.20
2022-08-30T06:55:33.345Z,0.45
2022-08-30T06:58:01.326Z,0.32
2022-08-30T07:00:28.987Z,0.65
2022-08-30T07:02:56.101Z,0.50
2022-08-30T07:05:23.772Z,0.30
2022-08-30T07:07:54.692Z,1.10
2022-08-30T07:10:21.801Z,0.40
2022-08-30T07:12:49.023Z,0.32
2022-08-30T07:15:16.592Z,0.30
2022-08-30T07:18:01.915Z,0.50
2022-08-30T07:22:55.707Z,0.17
2022-08-30T07:25:22.369Z,0.20
2022-08-30T07:27:51.908Z,0.30
2022-08-30T07:30:19.039Z,0.98
2022-08-30T07:32:45.632Z,0.38
2022-08-30T07:35:12.258Z,0.68
2022-08-30T07:37:38.816Z,0.20
2022-08-30T07:40:05.709Z,0.30
2022-08-30T07:42:32.441Z,0.20
2022-08-30T07:44:59.236Z,0.40
2022-08-30T07:47:25.809Z,0.30
2022-08-30T07:49:52.399Z,0.20
2022-08-30T07:52:18.949Z,0.32
2022-08-30T07:54:45.516Z,0.32
2022-08-30T07:57:12.416Z,0.30
2022-08-30T07:59:42.514Z,0.40
2022-08-30T08:02:09.231Z,0.30
2022-08-30T08:04:36.000Z,0.40
2022-08-30T08:07:02.810Z,0.30
2022-08-30T08:09:29.548Z,0.30
2022-08-30T08:11:56.398Z,0.63
2022-08-30T08:14:23.774Z,0.50
2022-08-30T08:16:50.513Z,0.50
2022-08-30T08:19:17.562Z,0.30
2022-08-30T08:21:44.111Z,0.50
2022-08-30T08:24:11.086Z,0.40
2022-08-30T08:26:38.802Z,0.38
2022-08-30T08:29:10.090Z,0.50
2022-08-30T08:31:37.965Z,0.38
2022-08-30T08:34:06.083Z,0.40
2022-08-30T08:36:34.513Z,0.68
2022-08-30T08:39:01.451Z,0.22
2022-08-30T08:41:33.880Z,0.40
2022-08-30T08:44:00.878Z,0.35
2022-08-30T08:46:41.142Z,0.30
2022-08-30T08:49:12.508Z,0.70
2022-08-30T08:51:58.813Z,0.65
2022-08-30T08:54:36.717Z,0.50
2022-08-30T08:57:03.598Z,0.32
2022-08-30T08:59:30.608Z,0.35
2022-08-30T09:02:03.175Z,0.40
2022-08-30T09:04:37.902Z,0.47
2022-08-30T09:07:24.562Z,0.17
2022-08-30T09:09:51.314Z,0.45
2022-08-30T09:12:17.937Z,0.30
2022-08-30T09:14:51.491Z,0.50
2022-08-30T09:17:23.408Z,0.28
2022-08-30T09:19:53.089Z,0.40
2022-08-30T09:22:43.679Z,0.25
2022-08-30T09:25:13.324Z,0.30
2022-08-30T09:27:45.500Z,0.22
2022-08-30T09:30:15.926Z,0.25
2022-08-30T09:32:57.454Z,0.40
2022-08-30T09:35:42.241Z,0.40
2022-08-30T09:38:21.776Z,0.40
2022-08-30T09:40:54.124Z,0.40
2022-08-30T09:43:32.428Z,0.50
2022-08-30T09:45:59.050Z,0.40
2022-08-30T09:48:44.216Z,0.47
2022-08-30T09:51:10.908Z,0.60
2022-08-30T09:54:16.481Z,0.40
2022-08-30T09:57:13.239Z,0.28
2022-08-30T10:00:01.391Z,0.52
2022-08-30T10:02:28.479Z,0.80
2022-08-30T10:05:07.084Z,0.40
2022-08-30T10:07:45.519Z,0.43
2022-08-30T10:10:31.517Z,0.50
2022-08-30T10:13:29.602Z,0.40
2022-08-30T10:16:13.575Z,0.60
2022-08-30T10:18:46.091Z,0.45
2022-08-30T10:21:19.412Z,0.50
2022-08-30T10:23:58.719Z,0.35
2022-08-30T10:26:50.090Z,0.50
2022-08-30T10:29:23.698Z,0.60
2022-08-30T10:32:02.895Z,0.52
2022-08-30T10:34:37.299Z,0.43
2022-08-30T10:37:25.519Z,0.68
2022-08-30T10:39:59.241Z,0.50
2022-08-30T10:42:30.949Z,0.38
2022-08-30T10:45:13.419Z,0.47
2022-08-30T10:47:57.088Z,0.70
2022-08-30T10:50:33.856Z,0.50
2022-08-30T10:53:25.369Z,0.52
2022-08-30T10:55:58.540Z,0.35
2022-08-30T10:58:25.372Z,0.35
2022-08-30T11:01:12.396Z,0.60
2022-08-30T11:04:25.931Z,0.73
2022-08-30T11:07:09.843Z,0.57
2022-08-30T11:09:42.560Z,0.63
2022-08-30T11:12:44.510Z,0.50
2022-08-30T11:15:21.432Z,0.57
2022-08-30T11:18:03.333Z,0.57
2022-08-30T11:20:36.302Z,0.30
2022-08-30T11:23:11.910Z,0.30
2022-08-30T11:26:02.044Z,0.43
2022-08-30T11:28:35.833Z,0.50
2022-08-30T11:31:11.648Z,0.40
2022-08-30T11:33:47.191Z,0.28
2022-08-30T11:36:37.455Z,0.30
2022-08-30T11:39:13.786Z,0.50
2022-08-30T11:41:47.640Z,0.52
2022-08-30T11:44:34.918Z,0.50
2022-08-30T11:47:22.906Z,0.40
2022-08-30T11:50:09.793Z,0.40
2022-08-30T11:52:59.937Z,0.43
2022-08-30T11:56:04.505Z,0.50
2022-08-30T11:58:42.415Z,0.52
2022-08-30T12:01:38.620Z,0.52
2022-08-30T12:04:25.571Z,0.40
2022-08-30T12:06:56.907Z,0.28
2022-08-30T12:09:23.430Z,0.52
2022-08-30T12:11:56.010Z,0.10
2022-08-30T12:14:41.130Z,0.50
2022-08-30T12:17:52.309Z,0.25
2022-08-30T12:20:40.894Z,0.25
2022-08-30T12:23:29.700Z,0.30
2022-08-30T12:26:20.243Z,0.50
2022-08-30T12:28:49.161Z,0.40
2022-08-30T12:31:22.729Z,0.52
2022-08-30T12:33:55.052Z,0.43
2022-08-30T12:36:41.430Z,0.22
2022-08-30T12:39:23.187Z,1.55
2022-08-30T12:41:50.412Z,0.60
2022-08-30T12:44:24.711Z,0.30
2022-08-30T12:46:59.560Z,0.40
2022-08-30T12:49:30.320Z,0.50
2022-08-30T12:52:16.890Z,0.47
2022-08-30T12:54:44.603Z,0.50
2022-08-30T12:57:34.269Z,0.70
2022-08-30T13:00:02.378Z,1.10
2022-08-30T13:02:54.261Z,3.25
2022-08-30T13:05:45.813Z,11.20
2022-08-30T13:08:20.220Z,1.90
2022-08-30T13:11:04.414Z,8.15
2022-08-30T13:13:38.911Z,4.72
2022-08-30T13:16:17.959Z,11.18
2022-08-30T13:18:46.331Z,2.40
2022-08-30T13:21:31.623Z,0.52
2022-08-30T13:24:07.288Z,9.52
2022-08-30T13:26:38.199Z,11.95
2022-08-30T13:29:10.506Z,9.32
2022-08-30T13:31:37.533Z,1.80
2022-08-30T13:34:05.141Z,11.75
2022-08-30T13:36:35.517Z,11.75
2022-08-30T13:39:03.484Z,2.80
2022-08-30T13:41:34.155Z,2.45
2022-08-30T13:44:16.642Z,13.63
2022-08-30T13:46:52.477Z,8.32
2022-08-30T13:49:44.316Z,7.13
2022-08-30T13:52:22.579Z,8.07
2022-08-30T13:54:54.797Z,2.42
2022-08-30T14:00:17.904Z,0.50
2022-08-30T14:02:51.595Z,0.40
2022-08-30T14:05:46.886Z,0.47
2022-08-30T14:10:58.343Z,0.75
2022-08-30T14:13:29.311Z,0.40
2022-08-30T14:18:44.865Z,0.60
2022-08-30T14:21:12.001Z,0.40
2022-08-30T14:23:38.584Z,0.40
2022-08-30T14:26:13.609Z,0.63
2022-08-30T14:28:40.183Z,0.40
2022-08-30T14:31:07.022Z,0.50
2022-08-30T14:33:33.699Z,0.50
2022-08-30T14:36:00.681Z,0.40
2022-08-30T14:38:27.263Z,0.57
2022-08-30T14:40:54.188Z,0.50
2022-08-30T14:43:20.992Z,0.30
2022-08-30T14:45:47.624Z,0.60
2022-08-30T14:48:14.889Z,0.43
2022-08-30T14:50:41.699Z,0.30
2022-08-30T14:53:08.333Z,0.50
2022-08-30T14:55:35.119Z,0.35
2022-08-30T14:58:01.973Z,0.47
2022-08-30T15:00:30.859Z,0.50
2022-08-30T15:02:58.769Z,0.63
2022-08-30T15:05:25.338Z,0.47
2022-08-30T15:07:52.993Z,0.35
2022-08-30T15:10:21.163Z,0.50
2022-08-30T15:12:48.733Z,0.60
2022-08-30T15:15:20.730Z,0.40
2022-08-30T15:17:48.522Z,0.50
2022-08-30T15:20:18.900Z,0.52
2022-08-30T15:22:46.301Z,0.60
2022-08-30T15:25:13.944Z,0.40
2022-08-30T15:27:40.596Z,0.50
2022-08-30T15:30:07.752Z,0.55
2022-08-30T15:32:37.652Z,0.60
2022-08-30T15:35:05.527Z,0.30
2022-08-30T15:37:34.969Z,0.70
2022-08-30T15:40:01.768Z,0.60
2022-08-30T15:42:32.134Z,0.40
2022-08-30T15:44:59.753Z,0.52
2022-08-30T15:47:26.794Z,0.60
2022-08-30T15:50:02.107Z,0.88
2022-08-30T15:52:30.704Z,0.70
2022-08-30T15:54:57.999Z,0.50
2022-08-30T15:57:25.015Z,0.60
2022-08-30T15:59:52.266Z,0.28
2022-08-30T16:02:18.863Z,0.60
2022-08-30T16:04:46.488Z,0.35
2022-08-30T16:07:13.271Z,0.38
2022-08-30T16:09:40.632Z,0.60
2022-08-30T16:12:09.791Z,0.50
2022-08-30T16:14:36.688Z,0.95
2022-08-30T16:17:03.919Z,0.52
2022-08-30T16:19:31.458Z,0.45
2022-08-30T16:21:58.863Z,0.40
2022-08-30T16:24:26.031Z,0.40
2022-08-30T16:26:53.256Z,0.52
2022-08-30T16:29:20.729Z,0.50
2022-08-30T16:31:47.948Z,0.50
2022-08-30T16:34:17.765Z,0.55
2022-08-30T16:36:44.849Z,0.40
2022-08-30T16:39:15.650Z,0.40
2022-08-30T16:41:44.725Z,0.38
2022-08-30T16:44:11.607Z,0.47
2022-08-30T16:46:38.616Z,0.57
2022-08-30T16:49:05.673Z,0.68
2022-08-30T16:51:36.215Z,0.30
2022-08-30T16:54:07.620Z,0.40
2022-08-30T16:56:35.436Z,0.30
2022-08-30T16:59:04.696Z,0.40
2022-08-30T17:01:35.572Z,0.52
2022-08-30T17:04:02.683Z,0.60
2022-08-30T17:06:29.372Z,0.50
2022-08-30T17:08:56.705Z,0.43
2022-08-30T17:11:24.486Z,0.75
2022-08-30T17:13:51.416Z,0.40
2022-08-30T17:16:22.673Z,0.80
2022-08-30T17:18:55.876Z,1.42
2022-08-30T17:21:26.026Z,0.88
2022-08-30T17:23:53.038Z,0.70
2022-08-30T17:26:20.367Z,0.68
2022-08-30T17:28:47.132Z,0.70
2022-08-30T17:31:15.078Z,0.85
2022-08-30T17:33:43.181Z,0.88
2022-08-30T17:36:12.579Z,0.95
2022-08-30T17:38:44.785Z,0.93
2022-08-30T17:41:12.403Z,0.98
2022-08-30T17:43:39.545Z,0.65
2022-08-30T17:46:12.491Z,0.57
2022-08-30T17:48:39.486Z,0.80
2022-08-30T17:51:07.097Z,0.60
2022-08-30T17:53:34.864Z,0.50
2022-08-30T17:56:01.879Z,0.40
2022-08-30T17:58:28.736Z,0.73
2022-08-30T18:01:17.025Z,0.80
2022-08-30T18:03:45.563Z,0.60
2022-08-30T18:06:13.572Z,0.60
2022-08-30T18:08:40.591Z,0.60
2022-08-30T18:11:07.762Z,0.63
2022-08-30T18:13:34.771Z,0.70
2022-08-30T18:16:03.210Z,0.80
2022-08-30T18:18:30.469Z,0.60
2022-08-30T18:20:57.503Z,0.80
2022-08-30T18:23:24.410Z,0.60
2022-08-30T18:25:56.487Z,0.60
2022-08-30T18:28:23.065Z,0.55
2022-08-30T18:30:49.918Z,0.68
2022-08-30T18:33:17.265Z,0.63
2022-08-30T18:35:48.327Z,0.60
2022-08-30T18:38:15.231Z,0.52
2022-08-30T18:40:41.896Z,0.45
2022-08-30T18:43:10.529Z,0.80
2022-08-30T18:45:38.324Z,0.57
2022-08-30T18:48:05.652Z,0.70
2022-08-30T18:50:33.668Z,0.40
2022-08-30T18:53:00.870Z,0.70
2022-08-30T18:55:27.904Z,0.70
2022-08-30T18:57:54.971Z,0.70
2022-08-30T19:00:21.706Z,0.60
2022-08-30T19:02:48.341Z,0.90
2022-08-30T19:05:19.016Z,0.55
2022-08-30T19:07:46.404Z,0.68
2022-08-30T19:10:17.080Z,0.60
2022-08-30T19:12:48.095Z,0.75
2022-08-30T19:15:15.359Z,0.60
2022-08-30T19:17:44.884Z,0.45
2022-08-30T19:20:14.643Z,0.88
2022-08-30T19:23:06.356Z,0.80
2022-08-30T19:25:28.974Z,0.70
2022-08-30T19:27:55.785Z,0.98
2022-08-30T19:30:29.359Z,0.68
2022-08-30T19:32:56.711Z,0.55
2022-08-30T19:35:24.788Z,0.77
2022-08-30T19:37:51.439Z,0.98
2022-08-30T19:40:19.549Z,0.73
2022-08-30T19:42:48.301Z,0.95
2022-08-30T19:45:21.660Z,0.98
2022-08-30T19:47:49.654Z,0.85
2022-08-30T19:50:17.536Z,0.70
2022-08-30T19:52:48.436Z,0.98
2022-08-30T19:57:45.919Z,0.68
2022-08-30T20:00:16.608Z,0.85
2022-08-30T20:02:44.259Z,0.80
2022-08-30T20:05:14.598Z,0.77
2022-08-30T20:07:41.709Z,1.10
2022-08-30T20:10:12.647Z,0.73
2022-08-30T20:15:29.566Z,0.70
2022-08-30T20:18:05.622Z,0.93
2022-08-30T20:20:36.626Z,0.80
2022-08-30T20:23:04.847Z,0.80
2022-08-30T20:25:31.561Z,1.00
2022-08-30T20:27:59.383Z,1.08
2022-08-30T20:30:27.407Z,1.13
2022-08-30T20:32:54.268Z,0.63
2022-08-30T20:35:21.129Z,0.80
2022-08-30T20:37:47.702Z,0.98
2022-08-30T20:40:16.119Z,0.90
2022-08-30T20:42:45.671Z,1.13
2022-08-30T20:45:15.252Z,0.63
2022-08-30T20:47:43.011Z,0.80
2022-08-30T20:50:15.935Z,0.80
2022-08-30T20:52:43.152Z,1.00
2022-08-30T20:55:10.998Z,1.02
2022-08-30T20:57:37.846Z,0.80
2022-08-30T21:00:11.010Z,1.00
2022-08-30T21:02:46.454Z,1.00
2022-08-30T21:05:15.387Z,0.80
2022-08-30T21:07:43.506Z,0.70
2022-08-30T21:10:11.300Z,0.75
2022-08-30T21:12:37.917Z,0.85
2022-08-30T21:15:26.856Z,2.40
2022-08-30T21:17:52.703Z,1.17
2022-08-30T21:20:19.437Z,0.70
2022-08-30T21:22:45.945Z,0.82
2022-08-30T21:25:12.684Z,1.25
2022-08-30T21:27:39.270Z,1.17
2022-08-30T21:30:06.213Z,0.85
2022-08-30T21:32:32.764Z,1.00
2022-08-30T21:35:17.692Z,1.00
2022-08-30T21:37:44.259Z,0.73
2022-08-30T21:40:14.967Z,0.90
2022-08-30T21:42:42.006Z,1.00
2022-08-30T21:45:09.038Z,0.98
2022-08-30T21:47:35.712Z,0.90
2022-08-30T21:50:02.390Z,0.65
2022-08-30T21:52:28.957Z,0.95
2022-08-30T21:54:55.514Z,0.90
2022-08-30T21:57:22.144Z,0.90
2022-08-30T21:59:48.773Z,0.93
2022-08-30T22:02:15.353Z,0.77
2022-08-30T22:04:42.035Z,0.75
2022-08-30T22:07:08.763Z,0.80
2022-08-30T22:09:36.151Z,0.60
2022-08-30T22:12:05.011Z,0.82
2022-08-30T22:14:33.606Z,0.90
2022-08-30T22:17:01.687Z,0.90
2022-08-30T22:19:28.319Z,0.80
2022-08-30T22:22:00.632Z,1.02
2022-08-30T22:24:27.832Z,0.75
2022-08-30T22:26:59.167Z,0.93
2022-08-30T22:29:25.814Z,1.00
2022-08-30T22:31:52.411Z,1.13
2022-08-30T22:34:19.030Z,1.02
2022-08-30T22:36:45.890Z,1.10
2022-08-30T22:39:13.451Z,0.98
2022-08-30T22:41:41.526Z,1.10
2022-08-30T22:44:08.389Z,1.05
2022-08-30T22:46:36.210Z,0.88
2022-08-30T22:49:05.108Z,1.30
2022-08-30T22:51:31.916Z,0.90
2022-08-30T22:53:58.459Z,1.00
2022-08-30T22:56:26.227Z,0.98
2022-08-30T22:58:54.485Z,1.05
2022-08-30T23:01:26.873Z,1.08
2022-08-30T23:03:54.074Z,0.90
2022-08-30T23:06:21.263Z,0.93
2022-08-30T23:08:48.618Z,1.52
2022-08-30T23:11:15.604Z,0.98
2022-08-30T23:13:43.597Z,0.90
2022-08-30T23:16:11.452Z,0.90
2022-08-30T23:18:40.280Z,0.77
2022-08-30T23:21:10.859Z,1.23
2022-08-30T23:23:57.011Z,0.95
2022-08-30T23:26:42.932Z,1.08
2022-08-30T23:29:28.585Z,0.75
2022-08-30T23:34:58.949Z,1.10
2022-08-30T23:37:44.623Z,1.10
2022-08-30T23:40:32.799Z,0.90
2022-08-30T23:46:03.504Z,0.80
2022-08-30T23:48:50.794Z,1.10
2022-08-30T23:51:37.632Z,1.20
2022-08-30T23:54:24.330Z,0.90
2022-08-30T23:57:09.642Z,1.10
2022-08-30T23:59:55.315Z,1.10
